Time;durP1;ratioP1;P1;durP2;ratioP2;P2;SDS_P1;SDS_P2;PMS_P1;PMS_P2;Temp;Humidity;BMP_temperature;BMP_pressure;BME280_temperature;BME280_humidity;BME280_pressure;Samples;Min_cycle;Max_cycle;Signal;HPM_P1;HPM_P2
2021/08/28 00:16:50;;;;;;;23.90;16.20;;;;;;;14.81;75.81;99762.63;109962;1229;93935;-78
2021/08/28 00:20:56;;;;;;;24.50;17.60;;;;;;;14.80;75.74;99760.77;109830;1234;136873;-77
2021/08/28 00:40:30;;;;;;;22.40;16.90;;;;;;;14.69;75.87;99746.38;111265;1215;635568;-77
2021/08/28 00:44:40;;;;;;;22.60;17.00;;;;;;;14.62;75.87;99747.50;112126;1207;136964;-76
2021/08/28 00:48:49;;;;;;;19.80;16.10;;;;;;;14.57;76.02;99748.11;112027;1215;95259;-76
2021/08/28 00:52:58;;;;;;;21.00;16.30;;;;;;;14.51;75.94;99748.95;111949;1218;105630;-76
2021/08/28 00:56:58;;;;;;;;;;;;;;;;;;;;;
2021/08/28 01:01:22;;;;;;;18.60;14.10;;;;;;;14.32;76.13;99752.23;111574;1215;108629;-77
2021/08/28 01:09:44;;;;;;;22.80;16.30;;;;;;;14.15;76.48;99756.71;110941;1217;137313;-77
2021/08/28 01:22:10;;;;;;;20.90;16.50;;;;;;;14.16;76.81;99773.27;113179;1207;137898;-78
2021/08/28 01:26:24;;;;;;;21.40;16.20;;;;;;;14.18;76.80;99774.88;113357;1208;93246;-78
2021/08/28 01:34:49;;;;;;;;;;;;;;;;;;;;;
2021/08/28 01:42:48;;;;;;;22.00;16.90;;;;;;;14.16;76.90;99782.86;111441;1222;109750;-78
2021/08/28 01:55:02;;;;;;;;;;;;;;;;;;;;;
2021/08/28 01:58:57;;;;;;;;;;;;;;;;;;;;;
2021/08/28 02:11:50;;;;;;;;;;;;;;;;;;;;;
2021/08/28 02:20:30;;;;;;;23.30;16.10;;;;;;;14.08;76.99;99774.05;112212;1216;107983;-77
2021/08/28 02:28:33;;;;;;;;;;;;;;;;;;;;;
2021/08/28 02:32:40;;;;;;;21.80;15.90;;;;;;;14.03;77.06;99767.67;112319;1214;92975;-77
2021/08/28 02:36:39;;;;;;;;;;;;;;;;;;;;;
2021/08/28 02:40:37;;;;;;;22.40;16.20;;;;;;;14.01;77.05;99760.45;112134;1216;107154;-76
2021/08/28 02:45:09;;;;;;;22.70;15.00;;;;;;;14.01;77.17;99763.45;112174;1216;107629;-77
2021/08/28 02:49:14;;;;;;;20.60;14.80;;;;;;;13.95;77.06;99761.66;111790;1226;138179;-77
2021/08/28 02:57:12;;;;;;;;;;;;;;;;;;;;;
2021/08/28 03:01:31;;;;;;;21.10;15.20;;;;;;;13.82;77.34;99755.68;111273;1229;138160;-77
2021/08/28 03:21:59;;;;;;;19.20;15.30;;;;;;;13.56;77.53;99758.96;110553;1231;137131;-76
2021/08/28 03:26:04;;;;;;;18.90;15.40;;;;;;;13.56;77.75;99756.16;111415;1220;635019;-77
2021/08/28 03:34:23;;;;;;;18.90;14.80;;;;;;;13.45;77.96;99753.30;112352;1204;93908;-77
2021/08/28 03:38:31;;;;;;;18.30;14.30;;;;;;;13.43;78.14;99758.95;112159;1210;137128;-76
2021/08/28 03:42:28;;;;;;;;;;;;;;;;;;;;;
2021/08/28 03:55:17;;;;;;;24.80;18.40;;;;;;;13.36;78.40;99755.67;110706;1228;94891;-76
2021/08/28 04:11:05;;;;;;;21.10;14.60;;;;;;;13.39;78.83;99754.29;112051;1206;136765;-77
2021/08/28 04:15:13;;;;;;;18.10;14.50;;;;;;;13.45;78.69;99758.50;112017;1215;137786;-77
2021/08/28 04:19:20;;;;;;;21.90;13.90;;;;;;;13.49;78.51;99760.78;112094;1209;108054;-77
2021/08/28 04:23:29;;;;;;;17.60;13.80;;;;;;;13.50;78.48;99765.45;111941;1211;107225;-77
2021/08/28 04:27:34;;;;;;;;;;;;;;;;;;;;;
2021/08/28 04:31:46;;;;;;;18.80;13.10;;;;;;;13.54;78.28;99770.63;111555;1214;94063;-78
2021/08/28 04:35:55;;;;;;;18.20;12.80;;;;;;;13.48;78.14;99773.58;111584;1221;94900;-78
2021/08/28 04:39:56;;;;;;;;;;;;;;;;;;;;;
2021/08/28 04:44:56;;;;;;;20.40;15.20;;;;;;;13.55;78.24;99789.42;111078;1219;109325;-78
2021/08/28 04:48:53;;;;;;;16.90;13.50;;;;;;;13.56;78.10;99790.80;111019;1225;109998;-78
2021/08/28 05:01:28;;;;;;;19.30;15.00;;;;;;;13.45;78.15;99793.80;110231;1231;110080;-77
2021/08/28 05:14:09;;;;;;;23.30;17.10;;;;;;;13.49;78.59;99794.65;109901;1233;95088;-77
2021/08/28 05:22:21;;;;;;;22.90;17.20;;;;;;;13.58;78.44;99790.34;111435;1220;635047;-77
2021/08/28 05:26:30;;;;;;;23.50;16.40;;;;;;;13.63;78.53;99796.70;112285;1205;95048;-77
2021/08/28 05:30:39;;;;;;;23.80;17.40;;;;;;;13.71;78.31;99792.47;111851;1209;136681;-77
2021/08/28 05:38:55;;;;;;;24.10;17.10;;;;;;;13.86;78.25;99795.66;111786;1213;107486;-78
2021/08/28 05:43:28;;;;;;;22.40;16.30;;;;;;;13.99;78.11;99796.38;111228;1222;137205;-78
2021/08/28 05:47:42;;;;;;;21.60;15.60;;;;;;;14.14;77.91;99798.86;110900;1226;93903;-76
2021/08/28 05:51:50;;;;;;;18.30;14.00;;;;;;;14.33;77.70;99802.40;110877;1221;94101;-76
2021/08/28 06:00:01;;;;;;;19.30;13.90;;;;;;;14.73;76.85;99800.59;110311;1224;107665;-78
2021/08/28 06:08:12;;;;;;;16.30;13.10;;;;;;;15.12;76.07;99801.98;111185;1219;635956;-76
2021/08/28 06:12:19;;;;;;;17.10;14.00;;;;;;;15.27;75.19;99803.91;112299;1203;93958;-76
2021/08/28 06:21:09;;;;;;;14.50;12.00;;;;;;;15.69;74.57;99803.55;112178;1207;136469;-76
2021/08/28 06:28:55;;;;;;;15.10;12.60;;;;;;;16.10;73.56;99803.48;112089;1208;108489;-77
2021/08/28 06:33:28;;;;;;;18.40;13.90;;;;;;;16.26;73.09;99809.86;111915;1212;136974;-78
2021/08/28 06:37:10;;;;;;;18.10;13.70;;;;;;;16.45;72.50;99810.95;111651;1214;94010;-77
2021/08/28 06:41:25;;;;;;;14.90;12.50;;;;;;;16.59;72.21;99806.51;111171;1216;107314;-76
2021/08/28 06:45:22;;;;;;;;;;;;;;;;;;;;;
2021/08/28 06:49:16;;;;;;;20.50;16.80;;;;;;;16.96;71.42;99806.63;111182;1223;109561;-78
2021/08/28 06:53:31;;;;;;;19.80;15.70;;;;;;;17.03;71.34;99805.84;110862;1218;94942;-77
2021/08/28 06:57:39;;;;;;;18.80;15.00;;;;;;;17.19;71.09;99807.89;110566;1223;137021;-77
2021/08/28 07:01:20;;;;;;;;;;;;;;;;;;;;;
2021/08/28 07:05:46;;;;;;;;;;;;;;;17.42;70.82;99808.14;110692;1222;137295;-77
2021/08/28 07:09:07;;;;;;;18.30;15.10;;;;;;;17.46;70.54;99804.66;110943;1218;123570;-77
2021/08/28 07:17:28;;;;;;;;;;;;;;;;;;;;;
2021/08/28 07:25:10;;;;;;;24.10;17.70;;;;;;;17.76;70.58;99805.63;110480;1228;107841;-77
2021/08/28 07:29:41;;;;;;;21.80;17.60;;;;;;;18.21;69.72;99803.96;110579;1227;137805;-77
2021/08/28 07:45:20;;;;;;;;;;;;;;;;;;;;;
2021/08/28 07:49:05;;;;;;;;;;;;;;;;;;;;;
2021/08/28 07:57:33;;;;;;;;;;;;;;;;;;;;;
2021/08/28 08:09:19;;;;;;;20.10;17.40;;;;;;;18.39;67.87;99806.88;111257;1214;634802;-76
2021/08/28 08:13:38;;;;;;;;;;;;;;;;;;;;;
2021/08/28 08:17:47;;;;;;;16.40;13.30;;;;;;;18.50;67.81;99808.02;112205;1210;136812;-76
2021/08/28 08:21:35;;;;;;;;;;;;;;;;;;;;;
2021/08/28 08:25:52;;;;;;;17.40;14.10;;;;;;;18.84;67.07;99808.40;111967;1217;137075;-76
2021/08/28 08:29:41;;;;;;;16.90;13.20;;;;;;;18.93;66.84;99810.19;111938;1212;137184;-77
2021/08/28 08:34:10;;;;;;;14.40;12.90;;;;;;;18.97;66.12;99803.20;111863;1216;93897;-77
2021/08/28 08:38:44;;;;;;;13.10;11.60;;;;;;;19.07;66.00;99804.23;111446;1223;93952;-76
2021/08/28 08:42:25;;;;;;;15.10;12.70;;;;;;;19.12;65.62;99803.27;110524;1225;136947;-77
2021/08/28 08:45:33;;;;;;;;;;;;;;;19.07;65.61;99803.35;110465;1230;108088;-76
2021/08/28 08:50:04;;;;;;;14.70;12.20;;;;;;;19.05;65.78;99804.23;110048;1230;123182;-76
2021/08/28 08:54:09;;;;;;;14.30;11.00;;;;;;;19.09;65.57;99806.58;110002;1232;94913;-77
2021/08/28 08:57:59;;;;;;;10.60;8.70;;;;;;;19.01;65.20;99807.77;110190;1228;95103;-77
2021/08/28 09:01:38;;;;;;;10.60;8.70;;;;;;;19.01;65.13;99813.77;110546;1228;136676;-77
2021/08/28 09:05:08;;;;;;;;;;;;;;;;;;;;;
2021/08/28 09:21:51;;;;;;;;;;;;;;;;;;;;;
2021/08/28 09:34:25;;;;;;;6.10;5.40;;;;;;;19.08;63.63;99828.32;110235;1231;94864;-77
2021/08/28 09:38:31;;;;;;;6.80;6.20;;;;;;;19.16;63.45;99830.29;109920;1233;136764;-77
2021/08/28 09:50:05;;;;;;;7.10;5.90;;;;;;;19.35;62.78;99835.08;111886;1217;136367;-76
2021/08/28 09:54:14;;;;;;;6.40;5.70;;;;;;;19.54;63.13;99837.54;112162;1212;94760;-76
2021/08/28 10:02:25;;;;;;;;;;;;;;;;;;;;;
2021/08/28 10:07:15;;;;;;;5.70;5.20;;;;;;;19.85;61.52;99831.98;111045;1222;111133;-76
2021/08/28 10:10:49;;;;;;;;;;;;;;;;;;;;;
2021/08/28 10:18:46;;;;;;;5.40;4.90;;;;;;;20.15;60.69;99834.79;111530;1216;637045;-77
2021/08/28 10:22:55;;;;;;;6.80;5.00;;;;;;;20.33;60.61;99833.52;112112;1204;136162;-77
2021/08/28 10:27:04;;;;;;;6.00;4.80;;;;;;;20.33;59.46;99830.66;111994;1209;137203;-77
2021/08/28 10:31:13;;;;;;;5.10;4.60;;;;;;;20.29;59.84;99831.39;111977;1210;107106;-77
2021/08/28 10:35:13;;;;;;;8.30;5.00;;;;;;;20.41;59.57;99831.65;111937;1209;106162;-77
2021/08/28 10:39:13;;;;;;;;;;;;;;;;;;;;;
2021/08/28 10:52:22;;;;;;;5.80;5.10;;;;;;;20.50;59.20;99831.80;111109;1216;136762;-77
2021/08/28 10:55:52;;;;;;;5.80;5.00;;;;;;;20.51;59.19;99831.02;111250;1216;107003;-77
2021/08/28 11:00:30;;;;;;;;;;;;;;;;;;;;;
2021/08/28 11:04:48;;;;;;;7.10;5.00;;;;;;;20.58;58.92;99829.85;111359;1217;136841;-76
2021/08/28 11:08:51;;;;;;;5.50;4.80;;;;;;;20.62;58.85;99830.34;112047;1209;95006;-78
2021/08/28 11:12:59;;;;;;;5.50;5.00;;;;;;;20.63;58.58;99829.42;112093;1207;108365;-77
2021/08/28 11:17:21;;;;;;;6.50;4.50;;;;;;;20.57;58.53;99828.45;111998;1209;136671;-77
2021/08/28 11:29:39;;;;;;;6.00;4.70;;;;;;;20.62;58.45;99825.79;111866;1208;136994;-77
2021/08/28 11:34:09;;;;;;;5.00;4.20;;;;;;;20.63;58.37;99827.45;111969;1211;109253;-77
2021/08/28 11:38:20;;;;;;;;;;;;;;;;;;;;;
2021/08/28 11:42:08;;;;;;;;;;;;;;;;;;;;;
2021/08/28 11:46:43;;;;;;;4.80;4.40;;;;;;;20.69;58.17;99830.32;111967;1217;95120;-77
2021/08/28 11:50:51;;;;;;;5.70;4.40;;;;;;;20.67;57.86;99831.54;111544;1214;94905;-77
2021/08/28 11:54:49;;;;;;;5.40;4.20;;;;;;;20.62;57.68;99829.61;111483;1214;136526;-77
2021/08/28 11:58:40;;;;;;;;;;;;;;;;;;;;;
2021/08/28 12:02:51;;;;;;;;;;;;;;;;;;;;;
2021/08/28 12:07:17;;;;;;;;;;;;;;;;;;;;;
2021/08/28 12:11:03;;;;;;;;;;;;;;;;;;;;;
2021/08/28 12:15:40;;;;;;;6.00;4.00;;;;;;;20.57;57.49;99839.75;111589;1221;109645;-78
2021/08/28 12:20:09;;;;;;;6.40;4.10;;;;;;;20.53;57.32;99834.08;111364;1220;635595;-77
2021/08/28 12:24:00;;;;;;;;;;;;;;;;;;;;;
2021/08/28 12:28:13;;;;;;;4.50;3.60;;;;;;;20.47;57.14;99833.65;112721;1204;93864;-77
2021/08/28 12:31:55;;;;;;;;;;;;;;;;;;;;;
2021/08/28 12:35:53;;;;;;;;;;;;;;;;;;;;;
2021/08/28 12:39:51;;;;;;;3.60;3.10;;;;;;;20.65;57.39;99821.29;111985;1214;136296;-77
2021/08/28 12:43:19;;;;;;;4.30;3.40;;;;;;;20.77;57.46;99819.61;111941;1207;136615;-77
2021/08/28 12:46:53;;;;;;;5.10;4.00;;;;;;;20.89;57.11;99825.35;112114;1209;94054;-78
2021/08/28 12:50:49;;;;;;;5.80;4.30;;;;;;;20.90;56.64;99824.52;111976;1208;136299;-78
2021/08/28 12:55:18;;;;;;;4.40;4.00;;;;;;;20.94;56.79;99821.90;112016;1210;107155;-78
2021/08/28 12:58:44;;;;;;;5.80;3.40;;;;;;;21.03;57.00;99820.41;112060;1210;107620;-75
2021/08/28 13:03:23;;;;;;;4.20;3.70;;;;;;;21.12;57.07;99822.15;111472;1214;136900;-76
2021/08/28 13:06:47;;;;;;;;;;;;;;;;;;;;;
2021/08/28 13:10:48;;;;;;;4.40;3.50;;;;;;;21.31;56.84;99824.01;112611;1205;94070;-78
2021/08/28 13:14:58;;;;;;;3.40;3.00;;;;;;;21.39;56.61;99825.45;112316;1200;136583;-77
2021/08/28 13:19:01;;;;;;;;;;;;;;;;;;;;;
2021/08/28 13:22:46;;;;;;;;;;;;;;;;;;;;;
2021/08/28 13:26:56;;;;;;;4.40;3.20;;;;;;;21.46;56.25;99834.73;112163;1210;136657;-77
2021/08/28 13:34:59;;;;;;;3.80;3.30;;;;;;;21.49;56.17;99837.15;112155;1210;136143;-77
2021/08/28 13:39:08;;;;;;;3.40;3.10;;;;;;;21.39;55.60;99828.78;111988;1214;136622;-77
2021/08/28 13:43:43;;;;;;;5.70;3.20;;;;;;;21.36;55.92;99831.89;111946;1209;107184;-77
2021/08/28 13:47:40;;;;;;;5.00;3.10;;;;;;;21.28;55.88;99832.77;111238;1214;136651;-76
2021/08/28 13:51:11;;;;;;;;;;;;;;;;;;;;;
2021/08/28 14:00:00;;;;;;;4.20;3.00;;;;;;;21.18;54.77;99832.09;111039;1224;136591;-77
2021/08/28 14:03:23;;;;;;;;;;;;;;;;;;;;;
2021/08/28 14:07:20;;;;;;;3.70;3.00;;;;;;;21.18;55.22;99824.17;110156;1229;109270;-78
2021/08/28 14:11:30;;;;;;;2.90;2.60;;;;;;;21.21;55.16;99824.28;110431;1225;136707;-78
2021/08/28 14:19:34;;;;;;;2.50;2.30;;;;;;;21.05;54.67;99828.22;110787;1226;109116;-75
2021/08/28 14:23:27;;;;;;;;;;;;;;;;;;;;;
2021/08/28 14:31:21;;;;;;;;;;;;;;;;;;;;;
2021/08/28 14:35:49;;;;;;;3.30;2.70;;;;;;;20.89;54.33;99843.55;110376;1227;136781;-79
2021/08/28 14:39:21;;;;;;;;;;;;;;;;;;;;;
2021/08/28 14:47:32;;;;;;;;;;;;;;;;;;;;;
2021/08/28 14:51:30;;;;;;;2.50;1.70;;;;;;;20.65;53.81;99846.75;110772;1220;94899;-78
2021/08/28 15:00:06;;;;;;;2.10;1.90;;;;;;;20.41;53.31;99847.73;110191;1226;136726;-77
2021/08/28 15:07:47;;;;;;;;;;;;;;;;;;;;;
2021/08/28 15:11:46;;;;;;;1.60;1.50;;;;;;;20.03;52.31;99852.30;112332;1207;136510;-77
2021/08/28 15:15:45;;;;;;;1.70;1.60;;;;;;;19.90;52.99;99855.20;112208;1212;93954;-76
2021/08/28 15:19:16;;;;;;;;;;;;;;;;;;;;;
2021/08/28 15:28:01;;;;;;;3.50;1.90;;;;;;;19.78;53.12;99859.48;111137;1218;110489;-77
2021/08/28 15:31:43;;;;;;;;;;;;;;;;;;;;;
2021/08/28 15:39:37;;;;;;;;;;;;;;;;;;;;;
2021/08/28 15:44:02;;;;;;;1.70;1.60;;;;;;;19.74;53.52;99859.10;111460;1214;635810;-77
2021/08/28 15:52:10;;;;;;;2.10;1.60;;;;;;;19.63;53.44;99857.48;112013;1216;93943;-77
2021/08/28 15:56:07;;;;;;;;;;;;;;;;;;;;;
2021/08/28 15:59:06;;;;;;;3.50;3.10;;;;;;;19.57;54.18;99852.29;111015;1224;136806;-78
2021/08/28 16:03:16;;;;;;;5.60;3.70;;;;;;;19.54;53.99;99856.21;111095;1217;108489;-78
2021/08/28 16:07:54;;;;;;;2.50;2.20;;;;;;;19.47;54.05;99859.05;110987;1224;137154;-77
2021/08/28 16:11:49;;;;;;;2.80;2.30;;;;;;;19.43;54.49;99857.74;110718;1220;94497;-77
2021/08/28 16:15:54;;;;;;;;;;;;;;;;;;;;;
2021/08/28 16:20:04;;;;;;;3.00;2.60;;;;;;;19.39;55.23;99852.10;112222;1209;136433;-78
2021/08/28 16:28:26;;;;;;;2.30;2.00;;;;;;;19.26;55.49;99856.73;111710;1220;107181;-77
2021/08/28 16:33:02;;;;;;;4.00;2.50;;;;;;;19.21;55.78;99852.67;111789;1212;136759;-78
2021/08/28 16:40:51;;;;;;;;;;;;;;;;;;;;;
2021/08/28 16:49:08;;;;;;;3.50;2.70;;;;;;;18.84;56.74;99848.41;111394;1223;107959;-77
2021/08/28 16:52:17;;;;;;;5.60;3.00;;;;;;;18.73;57.01;99846.70;110930;1226;108063;-78
2021/08/28 16:56:26;;;;;;;;;;;;;;;;;;;;;
2021/08/28 17:00:31;;;;;;;;;;;;;;;;;;;;;
2021/08/28 17:04:45;;;;;;;16.70;12.60;;;;;;;18.41;57.70;99834.70;110509;1224;136636;-78
2021/08/28 17:08:51;;;;;;;12.60;10.80;;;;;;;18.29;57.95;99836.29;110627;1220;137280;-76
2021/08/28 17:20:35;;;;;;;;;;;;;;;;;;;;;
2021/08/28 17:25:02;;;;;;;4.60;3.90;;;;;;;17.95;58.84;99844.46;111388;1219;635969;-78
2021/08/28 17:29:12;;;;;;;4.00;3.40;;;;;;;17.80;58.97;99843.22;112411;1208;93957;-79
2021/08/28 17:33:21;;;;;;;4.10;3.30;;;;;;;17.68;59.18;99843.16;112025;1215;136370;-77
2021/08/28 17:37:30;;;;;;;4.20;3.20;;;;;;;17.56;59.48;99847.98;112260;1204;108042;-76
2021/08/28 17:41:32;;;;;;;5.70;3.20;;;;;;;17.44;59.77;99851.25;111669;1214;106706;-77
2021/08/28 17:46:05;;;;;;;6.40;4.30;;;;;;;17.38;60.30;99858.48;111294;1217;137193;-76
2021/08/28 17:58:31;;;;;;;5.00;3.90;;;;;;;17.12;60.50;99863.39;110529;1225;136546;-76
2021/08/28 18:02:29;;;;;;;6.00;5.00;;;;;;;17.05;60.59;99862.95;110154;1225;108075;-77
2021/08/28 18:06:36;;;;;;;4.80;4.40;;;;;;;16.94;60.58;99862.81;109798;1228;136727;-78
2021/08/28 18:10:18;;;;;;;4.30;3.90;;;;;;;16.86;60.90;99864.66;109630;1231;137386;-77
2021/08/28 18:18:57;;;;;;;6.10;4.50;;;;;;;16.81;61.04;99864.16;111391;1221;636846;-78
2021/08/28 18:23:08;;;;;;;5.20;4.20;;;;;;;16.74;61.12;99868.11;111995;1209;137096;-77
2021/08/28 18:27:16;;;;;;;7.70;5.50;;;;;;;16.68;61.33;99869.90;111899;1212;94060;-76
2021/08/28 18:35:33;;;;;;;;;;;;;;;;;;;;;
2021/08/28 19:00:13;;;;;;;9.30;5.90;;;;;;;16.44;64.21;99897.00;111395;1213;636723;-78
2021/08/28 19:08:06;;;;;;;10.00;6.30;;;;;;;16.37;65.04;99899.88;111503;1215;136347;-76
2021/08/28 19:11:54;;;;;;;;;;;;;;;;;;;;;
2021/08/28 19:32:51;;;;;;;;;;;;;;;;;;;;;
2021/08/28 19:36:48;;;;;;;8.00;6.40;;;;;;;16.08;65.00;99892.74;112368;1202;137148;-78
2021/08/28 19:40:58;;;;;;;8.70;6.30;;;;;;;16.00;65.33;99892.67;112349;1205;94030;-78
2021/08/28 19:53:24;;;;;;;;;;;;;;;;;;;;;
2021/08/28 19:56:53;;;;;;;;;;;;;;;;;;;;;
2021/08/28 20:01:25;;;;;;;9.20;7.10;;;;;;;15.69;67.66;99897.82;110119;1231;136660;-77
2021/08/28 20:05:28;;;;;;;8.80;6.90;;;;;;;15.65;68.01;99893.39;109885;1233;107810;-77
2021/08/28 20:13:01;;;;;;;10.60;7.50;;;;;;;15.68;68.71;99894.91;111518;1215;636133;-77
2021/08/28 20:17:09;;;;;;;9.50;7.50;;;;;;;15.67;69.14;99893.93;112217;1213;94010;-77
2021/08/28 20:21:18;;;;;;;10.60;8.10;;;;;;;15.69;69.23;99897.67;111931;1210;136369;-78
2021/08/28 20:25:20;;;;;;;10.70;7.80;;;;;;;15.63;69.53;99894.69;111290;1222;136894;-76
2021/08/28 20:29:30;;;;;;;10.00;7.30;;;;;;;15.58;69.73;99893.89;111282;1224;104954;-76
2021/08/28 20:33:30;;;;;;;;;;;;;;;;;;;;;
2021/08/28 20:42:29;;;;;;;10.40;8.30;;;;;;;15.45;70.53;99892.03;110352;1229;93809;-77
2021/08/28 20:46:36;;;;;;;10.10;7.90;;;;;;;15.38;70.64;99897.89;110221;1225;109116;-77
2021/08/28 20:50:08;;;;;;;;;;;;;;;;;;;;;
2021/08/28 21:02:15;;;;;;;10.30;7.70;;;;;;;15.10;71.58;99891.73;112146;1204;136699;-76
2021/08/28 21:06:35;;;;;;;;;;;;;;;;;;;;;
2021/08/28 21:10:34;;;;;;;9.50;7.90;;;;;;;15.07;71.96;99903.11;112010;1216;107654;-77
2021/08/28 21:14:35;;;;;;;;;;;;;;;;;;;;;
2021/08/28 21:19:11;;;;;;;10.50;8.40;;;;;;;14.92;72.03;99899.63;111486;1221;108635;-77
2021/08/28 21:26:59;;;;;;;;;;;;;;;;;;;;;
2021/08/28 21:31:19;;;;;;;13.40;9.80;;;;;;;14.70;72.18;99902.19;110541;1229;108602;-77
2021/08/28 21:34:58;;;;;;;;;;;;;;;;;;;;;
2021/08/28 21:38:46;;;;;;;14.60;10.90;;;;;;;14.59;72.43;99910.02;111508;1212;635576;-77
2021/08/28 21:42:56;;;;;;;14.80;11.90;;;;;;;14.46;72.64;99919.59;112386;1208;94858;-77
2021/08/28 21:47:06;;;;;;;16.00;12.80;;;;;;;14.36;72.81;99923.42;112322;1203;136509;-77
2021/08/28 21:51:14;;;;;;;16.40;12.80;;;;;;;14.32;73.01;99926.77;112409;1208;137404;-77
2021/08/28 22:03:15;;;;;;;;;;;;;;;;;;;;;
2021/08/28 22:12:07;;;;;;;18.00;12.40;;;;;;;14.29;72.93;99923.63;111456;1215;137361;-77
2021/08/28 22:16:14;;;;;;;;;;;;;;;;;;;;;
2021/08/28 22:32:14;;;;;;;;;;;;;;;;;;;;;
2021/08/28 22:36:53;;;;;;;13.90;10.40;;;;;;;14.21;72.61;99902.36;110286;1224;137124;-76
2021/08/28 22:45:06;;;;;;;13.50;10.30;;;;;;;14.25;72.68;99894.66;110227;1232;94883;-76
2021/08/28 22:57:29;;;;;;;14.40;11.70;;;;;;;14.22;72.47;99892.89;112312;1209;93905;-75
2021/08/28 23:05:49;;;;;;;13.40;11.30;;;;;;;14.17;72.64;99886.13;112114;1211;137150;-76
2021/08/28 23:09:58;;;;;;;15.90;11.90;;;;;;;14.15;72.66;99884.67;112051;1209;107460;-75
2021/08/28 23:31:01;;;;;;;17.10;12.60;;;;;;;14.01;72.94;99879.46;110224;1229;137316;-78
2021/08/28 23:34:34;;;;;;;;;;;;;;;;;;;;;
2021/08/28 23:39:05;;;;;;;13.70;11.30;;;;;;;14.01;72.95;99874.77;110129;1231;136907;-77
2021/08/28 23:47:19;;;;;;;13.50;11.70;;;;;;;13.92;73.06;99869.61;111356;1222;636436;-76
2021/08/28 23:55:37;;;;;;;14.30;11.30;;;;;;;13.83;73.16;99869.39;111885;1209;136553;-77
